createdAt,value
2022-11-24T00:00:51.983Z,100338.91
2022-11-24T00:03:18.976Z,100338.69
2022-11-24T00:05:45.832Z,100331.72
2022-11-24T00:08:12.726Z,100322.91
2022-11-24T00:10:39.215Z,100330.53
2022-11-24T00:13:05.698Z,100345.81
2022-11-24T00:15:32.188Z,100359.28
2022-11-24T00:17:58.625Z,100366.91
2022-11-24T00:20:25.071Z,100367.13
2022-11-24T00:22:51.704Z,100368.97
2022-11-24T00:25:18.185Z,100370.44
2022-11-24T00:27:44.803Z,100368.28
2022-11-24T00:30:11.780Z,100362.97
2022-11-24T00:32:38.358Z,100368.91
2022-11-24T00:35:05.364Z,100370.72
2022-11-24T00:37:32.004Z,100370.38
2022-11-24T00:39:58.434Z,100362.28
2022-11-24T00:42:24.867Z,100369.47
2022-11-24T00:44:51.306Z,100368.44
2022-11-24T00:47:17.865Z,100361.59
2022-11-24T00:49:44.359Z,100371.75
2022-11-24T00:52:10.787Z,100372.22
2022-11-24T00:54:37.292Z,100378.13
2022-11-24T00:57:03.758Z,100373.59
2022-11-24T00:59:32.594Z,100379.84
2022-11-24T01:01:59.145Z,100384.19
2022-11-24T01:04:25.665Z,100390.69
2022-11-24T01:06:52.099Z,100400.59
2022-11-24T01:09:18.595Z,100396.72
2022-11-24T01:12:04.034Z,100391.13
2022-11-24T01:14:32.899Z,100388.78
2022-11-24T01:16:59.917Z,100383.19
2022-11-24T01:19:26.377Z,100399.38
2022-11-24T01:21:53.220Z,100408.72
2022-11-24T01:24:19.723Z,100402.53
2022-11-24T01:26:46.214Z,100405.16
2022-11-24T01:29:12.967Z,100406.41
2022-11-24T01:31:39.709Z,100404.59
2022-11-24T01:34:06.426Z,100404.81
2022-11-24T01:36:33.846Z,100407.66
2022-11-24T01:39:00.306Z,100402.66
2022-11-24T01:41:27.021Z,100402.06
2022-11-24T01:43:54.735Z,100403.91
2022-11-24T01:46:26.900Z,100410.16
2022-11-24T01:49:11.253Z,100412.31
2022-11-24T01:51:53.601Z,100417.56
2022-11-24T01:54:43.691Z,100417.47
2022-11-24T01:57:19.765Z,100413.94
2022-11-24T01:59:48.586Z,100419.09
2022-11-24T02:02:15.508Z,100424.19
2022-11-24T02:04:42.699Z,100432.75
2022-11-24T02:07:10.233Z,100426.25
2022-11-24T02:09:49.542Z,100420.91
2022-11-24T02:12:16.044Z,100428.66
2022-11-24T02:14:44.703Z,100427.16
2022-11-24T02:17:11.643Z,100428.53
2022-11-24T02:19:41.225Z,100439.09
2022-11-24T02:22:25.831Z,100435.00
2022-11-24T02:25:01.799Z,100431.34
2022-11-24T02:27:28.721Z,100434.09
2022-11-24T02:29:55.384Z,100432.38
2022-11-24T02:32:23.445Z,100442.84
2022-11-24T02:34:49.932Z,100440.25
2022-11-24T02:37:16.404Z,100444.47
2022-11-24T02:39:42.946Z,100443.44
2022-11-24T02:42:13.576Z,100453.69
2022-11-24T02:44:46.261Z,100445.81
2022-11-24T02:47:13.809Z,100450.28
2022-11-24T02:49:40.594Z,100456.53
2022-11-24T02:52:07.612Z,100450.50
2022-11-24T02:54:34.350Z,100458.16
2022-11-24T02:57:01.307Z,100453.25
2022-11-24T02:59:27.813Z,100456.66
2022-11-24T03:01:54.386Z,100459.84
2022-11-24T03:04:21.023Z,100454.72
2022-11-24T03:06:47.637Z,100451.84
2022-11-24T03:09:14.083Z,100456.31
2022-11-24T03:11:40.622Z,100454.47
2022-11-24T03:14:07.372Z,100444.22
2022-11-24T03:16:33.872Z,100453.91
2022-11-24T03:19:00.417Z,100450.25
2022-11-24T03:21:26.856Z,100457.66
2022-11-24T03:23:54.117Z,100460.38
2022-11-24T03:26:22.446Z,100456.50
2022-11-24T03:28:49.413Z,100466.19
2022-11-24T03:31:16.046Z,100464.38
2022-11-24T03:33:42.670Z,100471.22
2022-11-24T03:36:09.575Z,100469.38
2022-11-24T03:38:36.141Z,100466.19
2022-11-24T03:41:02.636Z,100472.47
2022-11-24T03:43:29.233Z,100464.03
2022-11-24T03:45:55.835Z,100467.22
2022-11-24T03:48:22.444Z,100472.47
2022-11-24T03:50:57.749Z,100477.94
2022-11-24T03:53:26.389Z,100477.63
2022-11-24T03:55:53.620Z,100476.00
2022-11-24T03:58:20.574Z,100487.31
2022-11-24T04:00:51.404Z,100476.28
2022-11-24T04:03:17.917Z,100488.91
2022-11-24T04:05:44.673Z,100492.91
2022-11-24T04:08:11.413Z,100493.25
2022-11-24T04:10:38.663Z,100495.63
2022-11-24T04:13:14.446Z,100497.22
2022-11-24T04:15:42.617Z,100494.59
2022-11-24T04:18:09.953Z,100502.47
2022-11-24T04:20:36.668Z,100502.47
2022-11-24T04:23:03.565Z,100508.75
2022-11-24T04:25:30.441Z,100514.56
2022-11-24T04:27:57.984Z,100515.59
2022-11-24T04:30:26.425Z,100519.47
2022-11-24T04:32:53.153Z,100528.38
2022-11-24T04:35:19.688Z,100524.16
2022-11-24T04:37:46.316Z,100525.19
2022-11-24T04:40:13.560Z,100533.63
2022-11-24T04:42:40.123Z,100531.25
2022-11-24T04:45:08.062Z,100542.06
2022-11-24T04:47:34.746Z,100536.81
2022-11-24T04:50:01.616Z,100549.50
2022-11-24T04:52:30.281Z,100552.69
2022-11-24T04:54:56.880Z,100557.72
2022-11-24T04:57:25.664Z,100566.97
2022-11-24T04:59:53.165Z,100570.38
2022-11-24T05:02:20.446Z,100572.19
2022-11-24T05:04:47.166Z,100581.91
2022-11-24T05:07:18.294Z,100586.13
2022-11-24T05:10:05.321Z,100589.31
2022-11-24T05:12:31.961Z,100590.91
2022-11-24T05:14:59.420Z,100597.19
2022-11-24T05:17:33.744Z,100602.44
2022-11-24T05:20:00.647Z,100610.56
2022-11-24T05:22:29.003Z,100604.16
2022-11-24T05:24:55.708Z,100614.88
2022-11-24T05:27:22.218Z,100621.63
2022-11-24T05:29:48.961Z,100629.94
2022-11-24T05:32:15.484Z,100625.72
2022-11-24T05:34:41.961Z,100625.38
2022-11-24T05:37:08.497Z,100634.75
2022-11-24T05:39:36.626Z,100631.56
2022-11-24T05:42:24.751Z,100636.47
2022-11-24T05:44:51.857Z,100648.19
2022-11-24T05:47:19.071Z,100650.69
2022-11-24T05:49:45.569Z,100652.75
2022-11-24T05:52:12.339Z,100659.25
2022-11-24T05:54:38.913Z,100660.50
2022-11-24T05:57:05.501Z,100677.47
2022-11-24T05:59:32.120Z,100683.16
2022-11-24T06:01:58.708Z,100686.00
2022-11-24T06:04:25.583Z,100687.84
2022-11-24T06:06:52.151Z,100689.44
2022-11-24T06:09:18.742Z,100698.09
2022-11-24T06:11:47.577Z,100701.75
2022-11-24T06:14:14.501Z,100709.84
2022-11-24T06:16:41.107Z,100713.97
2022-11-24T06:19:07.744Z,100719.97
2022-11-24T06:21:34.252Z,100721.25
2022-11-24T06:24:00.893Z,100728.91
2022-11-24T06:26:27.788Z,100736.53
2022-11-24T06:28:54.451Z,100745.78
2022-11-24T06:31:20.980Z,100742.13
2022-11-24T06:33:47.724Z,100751.00
2022-11-24T06:36:14.966Z,100755.69
2022-11-24T06:38:41.599Z,100768.25
2022-11-24T06:41:12.835Z,100766.88
2022-11-24T06:43:39.493Z,100772.09
2022-11-24T06:46:06.278Z,100782.59
2022-11-24T06:48:33.205Z,100784.63
2022-11-24T06:51:01.460Z,100786.69
2022-11-24T06:53:32.511Z,100789.75
2022-11-24T06:56:00.632Z,100793.81
2022-11-24T06:58:27.089Z,100798.91
2022-11-24T07:00:54.238Z,100799.34
2022-11-24T07:03:20.811Z,100805.25
2022-11-24T07:05:47.416Z,100818.59
2022-11-24T07:08:17.730Z,100823.03
2022-11-24T07:10:44.986Z,100825.44
2022-11-24T07:13:11.492Z,100828.06
2022-11-24T07:15:38.041Z,100828.84
2022-11-24T07:18:04.784Z,100832.28
2022-11-24T07:20:31.239Z,100848.59
2022-11-24T07:22:58.615Z,100851.59
2022-11-24T07:25:25.625Z,100847.72
2022-11-24T07:27:59.692Z,100851.50
2022-11-24T07:30:28.431Z,100854.72
2022-11-24T07:33:02.453Z,100849.25
2022-11-24T07:35:30.322Z,100857.94
2022-11-24T07:37:58.386Z,100858.94
2022-11-24T07:40:26.976Z,100862.38
2022-11-24T07:42:54.246Z,100873.44
2022-11-24T07:45:21.289Z,100876.66
2022-11-24T07:47:47.886Z,100885.09
2022-11-24T07:50:14.538Z,100884.91
2022-11-24T07:53:36.647Z,100884.47
2022-11-24T07:56:05.485Z,100893.69
2022-11-24T07:58:34.792Z,100900.53
2022-11-24T11:55:34.844Z,101146.50
2022-11-24T12:07:42.590Z,101148.66
2022-11-24T12:10:47.265Z,101148.19
2022-11-24T12:13:32.122Z,101141.91
2022-11-24T12:16:27.819Z,101143.56
2022-11-24T12:19:00.095Z,101140.00
2022-11-24T12:21:55.475Z,101141.38
2022-11-24T12:25:22.338Z,101140.00
2022-11-24T12:28:12.910Z,101142.78
2022-11-24T12:31:13.693Z,101138.88
2022-11-24T12:34:01.292Z,101142.88
2022-11-24T12:36:52.495Z,101138.66
2022-11-24T12:39:34.542Z,101140.47
2022-11-24T12:42:08.323Z,101145.84
2022-11-24T12:44:39.532Z,101141.72
2022-11-24T12:47:41.122Z,101149.63
2022-11-24T12:50:16.372Z,101159.28
2022-11-24T12:52:57.172Z,101167.09
2022-11-24T12:55:26.397Z,101172.22
2022-11-24T12:58:11.092Z,101164.78
2022-11-24T13:01:20.225Z,101169.34
2022-11-24T13:04:04.041Z,101169.72
2022-11-24T13:06:51.497Z,101165.13
2022-11-24T13:09:18.205Z,101157.22
2022-11-24T13:11:47.087Z,101160.97
2022-11-24T13:14:18.271Z,101159.16
2022-11-24T13:17:42.142Z,101165.69
2022-11-24T13:20:20.351Z,101164.41
2022-11-24T13:22:49.972Z,101160.97
2022-11-24T13:25:20.694Z,101160.97
2022-11-24T13:27:52.031Z,101153.31
2022-11-24T13:30:33.689Z,101151.47
2022-11-24T13:33:16.448Z,101154.09
2022-11-24T13:36:04.308Z,101158.34
2022-11-24T13:38:51.485Z,101156.50
2022-11-24T13:41:33.275Z,101152.28
2022-11-24T13:44:15.127Z,101155.13
2022-11-24T13:47:06.331Z,101156.97
2022-11-24T13:49:46.473Z,101159.84
2022-11-24T13:52:41.057Z,101152.97
2022-11-24T13:55:13.780Z,101152.16
2022-11-24T13:57:46.200Z,101155.84
2022-11-24T14:00:24.965Z,101158.72
2022-11-24T14:02:55.060Z,101154.69
2022-11-24T14:05:27.410Z,101158.00
2022-11-24T14:07:54.420Z,101150.00
2022-11-24T14:10:29.410Z,101148.84
2022-11-24T14:13:24.088Z,101156.19
2022-11-24T14:15:59.770Z,101158.75
2022-11-24T14:18:27.364Z,101158.63
2022-11-24T14:20:53.826Z,101157.25
2022-11-24T14:23:20.250Z,101153.47
2022-11-24T14:25:51.744Z,101150.75
2022-11-24T14:28:29.186Z,101145.81
2022-11-24T14:31:09.719Z,101135.41
2022-11-24T14:33:36.719Z,101146.28
2022-11-24T14:36:03.390Z,101141.72
2022-11-24T14:38:29.886Z,101144.00
2022-11-24T14:40:56.621Z,101145.94
2022-11-24T14:43:23.157Z,101152.94
2022-11-24T14:45:53.168Z,101156.72
2022-11-24T14:48:25.404Z,101154.41
2022-11-24T14:50:52.575Z,101151.88
2022-11-24T14:53:26.277Z,101151.41
2022-11-24T14:56:35.652Z,101151.97
2022-11-24T14:59:03.361Z,101150.91
2022-11-24T15:01:33.065Z,101151.47
2022-11-24T15:04:38.942Z,101150.97
2022-11-24T15:07:16.553Z,101147.66
2022-11-24T15:09:55.034Z,101155.41
2022-11-24T15:12:34.285Z,101156.28
2022-11-24T15:15:02.639Z,101166.09
2022-11-24T15:17:30.790Z,101155.50
2022-11-24T15:20:03.190Z,101161.84
2022-11-24T15:22:34.259Z,101156.69
2022-11-24T15:25:00.995Z,101160.75
2022-11-24T15:27:27.476Z,101168.06
2022-11-24T15:29:53.945Z,101170.31
2022-11-24T15:32:20.335Z,101175.00
2022-11-24T15:34:46.822Z,101174.41
2022-11-24T15:37:13.285Z,101181.13
2022-11-24T15:39:39.849Z,101173.88
2022-11-24T15:42:06.394Z,101171.13
2022-11-24T15:44:35.087Z,101174.84
2022-11-24T15:47:01.840Z,101175.13
2022-11-24T15:49:28.553Z,101171.75
2022-11-24T15:51:55.186Z,101168.38
2022-11-24T15:54:21.744Z,101161.81
2022-11-24T15:56:48.407Z,101158.22
2022-11-24T15:59:20.633Z,101159.09
2022-11-24T16:01:49.599Z,101172.06
2022-11-24T16:04:16.472Z,101163.00
2022-11-24T16:06:43.017Z,101169.69
2022-11-24T16:09:14.474Z,101171.50
2022-11-24T16:11:41.126Z,101172.56
2022-11-24T16:14:07.634Z,101168.75
2022-11-24T16:16:34.210Z,101172.59
2022-11-24T16:19:00.767Z,101167.19
2022-11-24T16:21:27.266Z,101166.00
2022-11-24T16:23:54.193Z,101159.78
2022-11-24T16:26:20.766Z,101160.00
2022-11-24T16:28:47.278Z,101167.84
2022-11-24T16:31:16.109Z,101170.69
2022-11-24T16:33:44.681Z,101182.19
2022-11-24T16:36:11.400Z,101168.69
2022-11-24T16:38:37.961Z,101172.72
2022-11-24T16:41:04.471Z,101177.38
2022-11-24T16:43:31.052Z,101183.63
2022-11-24T16:46:18.014Z,101173.00
2022-11-24T16:48:45.818Z,101175.03
2022-11-24T16:51:13.484Z,101174.03
2022-11-24T16:53:40.906Z,101170.13
2022-11-24T16:56:08.174Z,101167.16
2022-11-24T16:58:37.612Z,101168.19
2022-11-24T17:01:05.831Z,101163.94
2022-11-24T17:03:33.946Z,101173.84
2022-11-24T17:06:00.771Z,101168.81
2022-11-24T17:08:31.188Z,101170.03
2022-11-24T17:10:58.446Z,101170.25
2022-11-24T17:13:24.924Z,101166.81
2022-11-24T17:15:54.371Z,101166.81
2022-11-24T17:18:25.468Z,101161.56
2022-11-24T17:20:52.358Z,101161.16
2022-11-24T17:23:20.032Z,101168.81
2022-11-24T17:25:48.399Z,101166.16
2022-11-24T17:28:18.169Z,101171.97
2022-11-24T17:30:44.664Z,101168.91
2022-11-24T17:33:11.332Z,101176.75
2022-11-24T17:35:37.816Z,101170.88
2022-11-24T17:38:04.415Z,101172.91
2022-11-24T17:40:30.997Z,101170.28
2022-11-24T17:43:01.444Z,101173.09
2022-11-24T17:45:29.560Z,101169.09
2022-11-24T17:47:58.616Z,101174.34
2022-11-24T17:50:26.314Z,101174.34
2022-11-24T17:52:54.188Z,101178.19
2022-11-24T17:55:21.317Z,101175.78
2022-11-24T17:57:47.978Z,101177.78
2022-11-24T18:00:15.325Z,101170.13
2022-11-24T18:02:41.918Z,101169.13
2022-11-24T18:05:08.868Z,101167.50
2022-11-24T18:07:36.663Z,101169.13
2022-11-24T18:10:04.095Z,101170.72
2022-11-24T18:12:30.526Z,101176.34
2022-11-24T18:14:57.020Z,101174.94
2022-11-24T20:39:29.667Z,101130.75
2022-11-24T20:41:56.429Z,101135.97
2022-11-24T20:44:24.929Z,101135.34
2022-11-24T20:46:51.433Z,101135.34
2022-11-24T20:49:20.325Z,101133.53
2022-11-24T20:51:47.710Z,101133.53
2022-11-24T20:54:16.378Z,101128.66
2022-11-24T20:56:44.245Z,101132.84
2022-11-24T20:59:17.240Z,101132.78
2022-11-24T21:01:45.935Z,101132.56
2022-11-24T21:04:15.983Z,101130.75
2022-11-24T21:06:42.856Z,101124.09
2022-11-24T21:09:09.668Z,101132.78
2022-11-24T21:11:37.773Z,101132.34
2022-11-24T21:14:04.745Z,101130.69
2022-11-24T21:16:34.164Z,101137.72
2022-11-24T21:19:04.482Z,101139.13
2022-11-24T21:21:34.647Z,101134.25
2022-11-24T21:24:06.871Z,101127.78
2022-11-24T21:26:38.097Z,101122.53
2022-11-24T21:29:05.736Z,101117.28
2022-11-24T21:31:36.740Z,101126.16
2022-11-24T21:34:03.542Z,101123.31
2022-11-24T21:36:32.956Z,101123.91
2022-11-24T21:38:59.500Z,101115.25
2022-11-24T21:41:28.182Z,101121.50
2022-11-24T21:43:55.998Z,101112.03
2022-11-24T21:46:23.036Z,101113.25
2022-11-24T21:48:50.217Z,101114.88
2022-11-24T21:51:19.509Z,101108.22
2022-11-24T21:53:46.697Z,101105.81
2022-11-24T21:56:18.003Z,101103.19
2022-11-24T21:58:50.087Z,101101.97
2022-11-24T22:01:18.787Z,101099.91
2022-11-24T22:03:45.914Z,101096.88
2022-11-24T22:06:12.852Z,101090.16
2022-11-24T22:08:39.548Z,101093.56
2022-11-24T22:11:09.876Z,101090.50
2022-11-24T22:13:36.578Z,101090.31
2022-11-24T22:16:05.803Z,101083.00
2022-11-24T22:18:40.588Z,101083.59
2022-11-24T22:21:10.096Z,101082.78
2022-11-24T22:23:37.069Z,101087.84
2022-11-24T22:26:07.880Z,101079.97
2022-11-24T22:28:35.478Z,101090.69
2022-11-24T22:31:10.785Z,101092.13
2022-11-24T22:33:37.527Z,101087.09
2022-11-24T22:36:04.351Z,101096.13
2022-11-24T22:38:32.127Z,101092.06
2022-11-24T22:41:10.029Z,101094.03
2022-11-24T22:43:38.654Z,101081.72
2022-11-24T22:46:05.789Z,101082.75
2022-11-24T22:48:33.250Z,101089.81
2022-11-24T22:51:31.236Z,101074.28
2022-11-24T22:54:00.400Z,101089.00
2022-11-24T22:56:32.551Z,101094.03
2022-11-24T22:59:00.432Z,101095.44
2022-11-24T23:01:28.218Z,101096.25
2022-11-24T23:03:55.001Z,101091.78
2022-11-24T23:06:29.775Z,101091.78
2022-11-24T23:08:58.064Z,101092.00
2022-11-24T23:11:32.695Z,101098.28
2022-11-24T23:14:03.599Z,101090.41
2022-11-24T23:16:30.582Z,101097.25
2022-11-24T23:18:57.429Z,101086.38
2022-11-24T23:21:26.823Z,101080.53
2022-11-24T23:23:54.106Z,101086.59
2022-11-24T23:26:26.685Z,101080.53
2022-11-24T23:28:53.647Z,101080.34
2022-11-24T23:31:24.290Z,101088.00
2022-11-24T23:33:50.883Z,101074.88
2022-11-24T23:36:19.255Z,101077.50
2022-11-24T23:38:46.222Z,101067.00
2022-11-24T23:41:16.460Z,101070.19
2022-11-24T23:43:43.337Z,101074.44
2022-11-24T23:46:18.130Z,101076.03
2022-11-24T23:48:45.367Z,101071.59
2022-11-24T23:51:14.642Z,101071.81
2022-11-24T23:53:42.313Z,101072.03
2022-11-24T23:56:11.734Z,101075.66
2022-11-24T23:58:38.409Z,101068.00
